sensor_id;sensor_type;location;lat;lon;timestamp;temperature;humidity
37300;DHT22;23184;51.902;12.836;2022-12-13T00:01:53;-1.80;99.90
37300;DHT22;23184;51.902;12.836;2022-12-13T00:04:20;-1.80;99.90
37300;DHT22;23184;51.902;12.836;2022-12-13T00:06:46;-1.80;99.90
37300;DHT22;23184;51.902;12.836;2022-12-13T00:09:15;-1.80;99.90
37300;DHT22;23184;51.902;12.836;2022-12-13T00:11:41;-1.80;99.90
37300;DHT22;23184;51.902;12.836;2022-12-13T00:14:07;-1.70;99.90
37300;DHT22;23184;51.902;12.836;2022-12-13T00:16:32;-1.80;99.90
37300;DHT22;23184;51.902;12.836;2022-12-13T00:18:59;-1.80;99.90
37300;DHT22;23184;51.902;12.836;2022-12-13T00:21:30;-1.90;99.90
37300;DHT22;23184;51.902;12.836;2022-12-13T00:23:58;-1.90;99.90
37300;DHT22;23184;51.902;12.836;2022-12-13T00:26:26;-1.80;99.90
37300;DHT22;23184;51.902;12.836;2022-12-13T00:28:52;-1.80;99.90
37300;DHT22;23184;51.902;12.836;2022-12-13T00:31:21;-1.80;99.90
37300;DHT22;23184;51.902;12.836;2022-12-13T00:33:47;-1.80;99.90
37300;DHT22;23184;51.902;12.836;2022-12-13T00:36:14;-1.80;99.90
37300;DHT22;23184;51.902;12.836;2022-12-13T00:38:39;-1.80;99.90
37300;DHT22;23184;51.902;12.836;2022-12-13T00:43:39;-1.80;99.90
37300;DHT22;23184;51.902;12.836;2022-12-13T00:46:10;-1.80;99.90
37300;DHT22;23184;51.902;12.836;2022-12-13T00:48:37;-1.80;99.90
37300;DHT22;23184;51.902;12.836;2022-12-13T00:51:06;-1.90;99.90
37300;DHT22;23184;51.902;12.836;2022-12-13T00:53:32;-1.80;99.90
37300;DHT22;23184;51.902;12.836;2022-12-13T00:55:58;-1.90;99.90
37300;DHT22;23184;51.902;12.836;2022-12-13T00:58:23;-1.90;99.90
37300;DHT22;23184;51.902;12.836;2022-12-13T01:00:49;-1.90;99.90
37300;DHT22;23184;51.902;12.836;2022-12-13T01:03:14;-1.90;99.90
37300;DHT22;23184;51.902;12.836;2022-12-13T01:05:49;-1.80;99.90
37300;DHT22;23184;51.902;12.836;2022-12-13T01:08:15;-1.80;99.90
37300;DHT22;23184;51.902;12.836;2022-12-13T01:10:45;-1.80;99.90
37300;DHT22;23184;51.902;12.836;2022-12-13T01:13:11;-1.80;99.90
37300;DHT22;23184;51.902;12.836;2022-12-13T01:15:44;-1.80;99.90
37300;DHT22;23184;51.902;12.836;2022-12-13T01:18:11;-1.80;99.90
37300;DHT22;23184;51.902;12.836;2022-12-13T01:20:36;-1.80;99.90
37300;DHT22;23184;51.902;12.836;2022-12-13T01:23:03;-1.80;99.90
37300;DHT22;23184;51.902;12.836;2022-12-13T01:25:28;-1.80;99.90
37300;DHT22;23184;51.902;12.836;2022-12-13T01:27:54;-1.80;99.90
37300;DHT22;23184;51.902;12.836;2022-12-13T01:30:20;-1.80;99.90
37300;DHT22;23184;51.902;12.836;2022-12-13T01:32:45;-1.80;99.90
37300;DHT22;23184;51.902;12.836;2022-12-13T01:35:11;-1.80;99.90
37300;DHT22;23184;51.902;12.836;2022-12-13T01:37:38;-1.90;99.90
37300;DHT22;23184;51.902;12.836;2022-12-13T01:40:04;-1.90;99.90
37300;DHT22;23184;51.902;12.836;2022-12-13T01:42:29;-1.80;99.90
37300;DHT22;23184;51.902;12.836;2022-12-13T01:47:29;-1.90;99.90
37300;DHT22;23184;51.902;12.836;2022-12-13T01:49:59;-1.90;99.90
37300;DHT22;23184;51.902;12.836;2022-12-13T01:52:27;-1.90;99.90
37300;DHT22;23184;51.902;12.836;2022-12-13T01:54:55;-1.90;99.90
37300;DHT22;23184;51.902;12.836;2022-12-13T01:57:22;-2.00;99.90
37300;DHT22;23184;51.902;12.836;2022-12-13T01:59:49;-2.00;99.90
37300;DHT22;23184;51.902;12.836;2022-12-13T02:02:15;-2.00;99.90
37300;DHT22;23184;51.902;12.836;2022-12-13T02:05:10;-2.00;99.90
37300;DHT22;23184;51.902;12.836;2022-12-13T02:07:40;-2.00;99.90
37300;DHT22;23184;51.902;12.836;2022-12-13T02:10:08;-2.00;99.90
37300;DHT22;23184;51.902;12.836;2022-12-13T02:12:35;-2.00;99.90
37300;DHT22;23184;51.902;12.836;2022-12-13T02:15:13;-2.10;99.90
37300;DHT22;23184;51.902;12.836;2022-12-13T02:23:26;-2.10;99.90
37300;DHT22;23184;51.902;12.836;2022-12-13T02:34:44;-2.10;99.90
37300;DHT22;23184;51.902;12.836;2022-12-13T02:39:59;-2.20;99.90
37300;DHT22;23184;51.902;12.836;2022-12-13T02:45:17;-2.20;99.90
37300;DHT22;23184;51.902;12.836;2022-12-13T02:47:45;-2.30;99.90
37300;DHT22;23184;51.902;12.836;2022-12-13T02:50:13;-2.30;99.90
37300;DHT22;23184;51.902;12.836;2022-12-13T02:52:39;-2.30;99.90
37300;DHT22;23184;51.902;12.836;2022-12-13T02:55:10;-2.30;99.90
37300;DHT22;23184;51.902;12.836;2022-12-13T02:57:39;-2.30;99.90
37300;DHT22;23184;51.902;12.836;2022-12-13T03:00:20;-2.30;99.90
37300;DHT22;23184;51.902;12.836;2022-12-13T03:03:09;-2.40;99.90
37300;DHT22;23184;51.902;12.836;2022-12-13T03:09:17;-2.40;99.90
37300;DHT22;23184;51.902;12.836;2022-12-13T03:12:17;-2.40;99.90
37300;DHT22;23184;51.902;12.836;2022-12-13T03:17:35;-2.40;99.90
37300;DHT22;23184;51.902;12.836;2022-12-13T03:20:03;-2.40;99.90
37300;DHT22;23184;51.902;12.836;2022-12-13T03:22:32;-2.40;99.90
37300;DHT22;23184;51.902;12.836;2022-12-13T03:24:59;-2.40;99.90
37300;DHT22;23184;51.902;12.836;2022-12-13T03:27:24;-2.40;99.90
37300;DHT22;23184;51.902;12.836;2022-12-13T03:29:50;-2.40;99.90
37300;DHT22;23184;51.902;12.836;2022-12-13T03:32:15;-2.50;99.90
37300;DHT22;23184;51.902;12.836;2022-12-13T03:34:41;-2.40;99.90
37300;DHT22;23184;51.902;12.836;2022-12-13T03:37:06;-2.50;99.90
37300;DHT22;23184;51.902;12.836;2022-12-13T03:39:32;-2.50;99.90
37300;DHT22;23184;51.902;12.836;2022-12-13T03:41:58;-2.50;99.90
37300;DHT22;23184;51.902;12.836;2022-12-13T03:44:24;-2.40;99.90
37300;DHT22;23184;51.902;12.836;2022-12-13T03:46:49;-2.40;99.90
37300;DHT22;23184;51.902;12.836;2022-12-13T03:49:15;-2.50;99.90
37300;DHT22;23184;51.902;12.836;2022-12-13T03:51:40;-2.50;99.90
37300;DHT22;23184;51.902;12.836;2022-12-13T03:54:06;-2.50;99.90
37300;DHT22;23184;51.902;12.836;2022-12-13T03:56:31;-2.50;99.90
37300;DHT22;23184;51.902;12.836;2022-12-13T03:58:57;-2.50;99.90
37300;DHT22;23184;51.902;12.836;2022-12-13T04:01:23;-2.50;99.90
37300;DHT22;23184;51.902;12.836;2022-12-13T04:03:48;-2.50;99.90
37300;DHT22;23184;51.902;12.836;2022-12-13T04:06:15;-2.60;99.90
37300;DHT22;23184;51.902;12.836;2022-12-13T04:08:40;-2.60;99.90
37300;DHT22;23184;51.902;12.836;2022-12-13T04:11:07;-2.60;99.90
37300;DHT22;23184;51.902;12.836;2022-12-13T04:13:52;-2.60;99.90
37300;DHT22;23184;51.902;12.836;2022-12-13T04:16:18;-2.70;99.90
37300;DHT22;23184;51.902;12.836;2022-12-13T04:18:44;-2.80;99.90
37300;DHT22;23184;51.902;12.836;2022-12-13T04:21:09;-2.90;99.90
37300;DHT22;23184;51.902;12.836;2022-12-13T04:23:35;-2.90;99.90
37300;DHT22;23184;51.902;12.836;2022-12-13T04:26:01;-3.00;99.90
37300;DHT22;23184;51.902;12.836;2022-12-13T04:28:26;-3.10;99.90
37300;DHT22;23184;51.902;12.836;2022-12-13T04:30:52;-3.00;99.90
37300;DHT22;23184;51.902;12.836;2022-12-13T04:33:17;-3.10;99.90
37300;DHT22;23184;51.902;12.836;2022-12-13T04:35:46;-3.20;99.90
37300;DHT22;23184;51.902;12.836;2022-12-13T04:38:11;-3.40;99.90
37300;DHT22;23184;51.902;12.836;2022-12-13T04:40:37;-3.40;99.90
37300;DHT22;23184;51.902;12.836;2022-12-13T04:43:02;-3.50;99.90
37300;DHT22;23184;51.902;12.836;2022-12-13T04:45:28;-3.50;99.90
37300;DHT22;23184;51.902;12.836;2022-12-13T04:47:53;-3.60;99.90
37300;DHT22;23184;51.902;12.836;2022-12-13T04:50:19;-3.60;99.90
37300;DHT22;23184;51.902;12.836;2022-12-13T04:52:45;-3.60;99.90
37300;DHT22;23184;51.902;12.836;2022-12-13T04:55:10;-3.60;99.90
37300;DHT22;23184;51.902;12.836;2022-12-13T04:57:36;-3.60;99.90
37300;DHT22;23184;51.902;12.836;2022-12-13T05:00:04;-3.70;99.90
37300;DHT22;23184;51.902;12.836;2022-12-13T05:02:31;-3.70;99.90
37300;DHT22;23184;51.902;12.836;2022-12-13T05:04:56;-3.70;99.90
37300;DHT22;23184;51.902;12.836;2022-12-13T05:07:22;-3.70;99.90
37300;DHT22;23184;51.902;12.836;2022-12-13T05:09:47;-3.70;99.90
37300;DHT22;23184;51.902;12.836;2022-12-13T05:12:13;-3.70;99.90
37300;DHT22;23184;51.902;12.836;2022-12-13T05:14:38;-3.70;99.90
37300;DHT22;23184;51.902;12.836;2022-12-13T05:17:04;-3.70;99.90
37300;DHT22;23184;51.902;12.836;2022-12-13T05:19:29;-3.70;99.90
37300;DHT22;23184;51.902;12.836;2022-12-13T05:21:55;-3.70;99.90
37300;DHT22;23184;51.902;12.836;2022-12-13T05:24:21;-3.60;99.90
37300;DHT22;23184;51.902;12.836;2022-12-13T05:26:46;-3.60;99.90
37300;DHT22;23184;51.902;12.836;2022-12-13T05:29:12;-3.60;99.90
37300;DHT22;23184;51.902;12.836;2022-12-13T05:31:37;-3.50;99.90
37300;DHT22;23184;51.902;12.836;2022-12-13T05:34:03;-3.60;99.90
37300;DHT22;23184;51.902;12.836;2022-12-13T05:36:29;-3.60;99.90
37300;DHT22;23184;51.902;12.836;2022-12-13T05:38:55;-3.70;99.90
37300;DHT22;23184;51.902;12.836;2022-12-13T05:41:22;-3.60;99.90
37300;DHT22;23184;51.902;12.836;2022-12-13T05:43:49;-3.70;99.90
37300;DHT22;23184;51.902;12.836;2022-12-13T05:46:15;-3.90;99.90
37300;DHT22;23184;51.902;12.836;2022-12-13T05:48:41;-4.10;99.90
37300;DHT22;23184;51.902;12.836;2022-12-13T05:51:07;-4.20;99.90
37300;DHT22;23184;51.902;12.836;2022-12-13T05:53:33;-4.30;99.90
37300;DHT22;23184;51.902;12.836;2022-12-13T05:56:00;-4.40;99.90
37300;DHT22;23184;51.902;12.836;2022-12-13T05:58:25;-4.50;99.90
37300;DHT22;23184;51.902;12.836;2022-12-13T06:00:51;-4.50;99.90
37300;DHT22;23184;51.902;12.836;2022-12-13T06:03:17;-4.50;99.90
37300;DHT22;23184;51.902;12.836;2022-12-13T06:05:42;-4.60;99.90
37300;DHT22;23184;51.902;12.836;2022-12-13T06:08:09;-4.70;99.90
37300;DHT22;23184;51.902;12.836;2022-12-13T06:10:35;-4.70;99.90
37300;DHT22;23184;51.902;12.836;2022-12-13T06:13:02;-4.70;99.90
37300;DHT22;23184;51.902;12.836;2022-12-13T06:15:27;-4.70;99.90
37300;DHT22;23184;51.902;12.836;2022-12-13T06:17:53;-4.70;99.90
37300;DHT22;23184;51.902;12.836;2022-12-13T06:20:18;-4.70;99.90
37300;DHT22;23184;51.902;12.836;2022-12-13T06:22:45;-4.70;99.90
37300;DHT22;23184;51.902;12.836;2022-12-13T06:25:10;-4.90;99.90
37300;DHT22;23184;51.902;12.836;2022-12-13T06:27:36;-5.00;99.90
37300;DHT22;23184;51.902;12.836;2022-12-13T06:30:02;-5.00;99.90
37300;DHT22;23184;51.902;12.836;2022-12-13T06:32:27;-5.10;99.90
37300;DHT22;23184;51.902;12.836;2022-12-13T06:34:53;-5.20;99.90
37300;DHT22;23184;51.902;12.836;2022-12-13T06:37:19;-5.20;99.90
37300;DHT22;23184;51.902;12.836;2022-12-13T06:39:46;-5.20;99.90
37300;DHT22;23184;51.902;12.836;2022-12-13T06:42:16;-5.40;99.90
37300;DHT22;23184;51.902;12.836;2022-12-13T06:44:42;-5.40;99.90
37300;DHT22;23184;51.902;12.836;2022-12-13T06:47:08;-5.30;99.90
37300;DHT22;23184;51.902;12.836;2022-12-13T06:49:34;-5.20;99.90
37300;DHT22;23184;51.902;12.836;2022-12-13T06:51:59;-5.20;99.90
37300;DHT22;23184;51.902;12.836;2022-12-13T06:54:25;-5.20;99.90
37300;DHT22;23184;51.902;12.836;2022-12-13T06:56:50;-5.40;99.90
37300;DHT22;23184;51.902;12.836;2022-12-13T06:59:16;-5.50;99.90
37300;DHT22;23184;51.902;12.836;2022-12-13T07:01:41;-5.50;99.90
37300;DHT22;23184;51.902;12.836;2022-12-13T07:04:08;-5.40;99.90
37300;DHT22;23184;51.902;12.836;2022-12-13T07:06:35;-5.30;99.90
37300;DHT22;23184;51.902;12.836;2022-12-13T07:09:01;-5.20;99.90
37300;DHT22;23184;51.902;12.836;2022-12-13T07:11:28;-5.20;99.90
37300;DHT22;23184;51.902;12.836;2022-12-13T07:13:55;-5.20;99.90
37300;DHT22;23184;51.902;12.836;2022-12-13T07:16:21;-5.40;99.90
37300;DHT22;23184;51.902;12.836;2022-12-13T07:18:47;-5.50;99.90
37300;DHT22;23184;51.902;12.836;2022-12-13T07:21:17;-5.60;99.90
37300;DHT22;23184;51.902;12.836;2022-12-13T07:23:43;-5.70;99.90
37300;DHT22;23184;51.902;12.836;2022-12-13T07:26:09;-5.60;99.90
37300;DHT22;23184;51.902;12.836;2022-12-13T07:28:36;-5.50;99.90
37300;DHT22;23184;51.902;12.836;2022-12-13T07:31:04;-5.50;99.90
37300;DHT22;23184;51.902;12.836;2022-12-13T07:33:30;-5.50;99.90
37300;DHT22;23184;51.902;12.836;2022-12-13T07:36:04;-5.50;99.90
37300;DHT22;23184;51.902;12.836;2022-12-13T07:38:32;-5.60;99.90
37300;DHT22;23184;51.902;12.836;2022-12-13T07:40:58;-5.80;99.90
37300;DHT22;23184;51.902;12.836;2022-12-13T07:43:24;-5.80;99.90
37300;DHT22;23184;51.902;12.836;2022-12-13T07:45:52;-5.80;99.90
37300;DHT22;23184;51.902;12.836;2022-12-13T07:48:18;-5.80;99.90
37300;DHT22;23184;51.902;12.836;2022-12-13T07:50:44;-5.90;99.90
37300;DHT22;23184;51.902;12.836;2022-12-13T07:53:10;-5.90;99.90
37300;DHT22;23184;51.902;12.836;2022-12-13T07:55:36;-5.90;99.90
37300;DHT22;23184;51.902;12.836;2022-12-13T07:58:04;-6.00;99.90
37300;DHT22;23184;51.902;12.836;2022-12-13T08:00:29;-6.00;99.90
37300;DHT22;23184;51.902;12.836;2022-12-13T08:02:55;-6.00;99.90
37300;DHT22;23184;51.902;12.836;2022-12-13T08:05:21;-5.90;99.90
37300;DHT22;23184;51.902;12.836;2022-12-13T08:07:46;-5.90;99.90
37300;DHT22;23184;51.902;12.836;2022-12-13T08:10:12;-5.90;99.90
37300;DHT22;23184;51.902;12.836;2022-12-13T08:12:38;-5.90;99.90
37300;DHT22;23184;51.902;12.836;2022-12-13T08:15:04;-5.80;99.90
37300;DHT22;23184;51.902;12.836;2022-12-13T08:17:30;-5.80;99.90
37300;DHT22;23184;51.902;12.836;2022-12-13T08:19:55;-5.70;99.90
37300;DHT22;23184;51.902;12.836;2022-12-13T08:22:21;-5.70;99.90
37300;DHT22;23184;51.902;12.836;2022-12-13T08:24:46;-5.60;99.90
37300;DHT22;23184;51.902;12.836;2022-12-13T08:27:12;-5.60;99.90
37300;DHT22;23184;51.902;12.836;2022-12-13T08:29:37;-5.50;99.90
37300;DHT22;23184;51.902;12.836;2022-12-13T08:32:08;-5.50;99.90
37300;DHT22;23184;51.902;12.836;2022-12-13T08:34:34;-5.40;99.90
37300;DHT22;23184;51.902;12.836;2022-12-13T08:37:00;-5.50;99.90
37300;DHT22;23184;51.902;12.836;2022-12-13T08:39:25;-5.30;99.90
37300;DHT22;23184;51.902;12.836;2022-12-13T08:41:51;-5.40;99.90
37300;DHT22;23184;51.902;12.836;2022-12-13T08:44:16;-5.20;99.90
37300;DHT22;23184;51.902;12.836;2022-12-13T08:46:42;-5.10;99.90
37300;DHT22;23184;51.902;12.836;2022-12-13T08:49:09;-5.10;99.90
37300;DHT22;23184;51.902;12.836;2022-12-13T08:51:34;-5.20;99.90
37300;DHT22;23184;51.902;12.836;2022-12-13T08:54:01;-5.10;99.90
37300;DHT22;23184;51.902;12.836;2022-12-13T08:56:27;-5.20;99.90
37300;DHT22;23184;51.902;12.836;2022-12-13T08:58:52;-5.30;99.90
37300;DHT22;23184;51.902;12.836;2022-12-13T09:01:18;-5.30;99.90
37300;DHT22;23184;51.902;12.836;2022-12-13T09:03:44;-5.20;99.90
37300;DHT22;23184;51.902;12.836;2022-12-13T09:06:12;-5.20;99.90
37300;DHT22;23184;51.902;12.836;2022-12-13T09:08:38;-5.20;99.90
37300;DHT22;23184;51.902;12.836;2022-12-13T09:11:04;-5.20;99.90
37300;DHT22;23184;51.902;12.836;2022-12-13T09:13:32;-5.10;99.90
37300;DHT22;23184;51.902;12.836;2022-12-13T09:16:02;-5.10;99.90
37300;DHT22;23184;51.902;12.836;2022-12-13T09:18:27;-4.90;99.90
37300;DHT22;23184;51.902;12.836;2022-12-13T09:20:53;-5.00;99.90
37300;DHT22;23184;51.902;12.836;2022-12-13T09:23:18;-4.90;99.90
37300;DHT22;23184;51.902;12.836;2022-12-13T09:25:44;-4.90;99.90
37300;DHT22;23184;51.902;12.836;2022-12-13T09:28:09;-4.80;99.90
37300;DHT22;23184;51.902;12.836;2022-12-13T09:30:36;-4.80;99.90
37300;DHT22;23184;51.902;12.836;2022-12-13T09:33:03;-4.80;99.90
37300;DHT22;23184;51.902;12.836;2022-12-13T09:35:28;-4.70;99.90
37300;DHT22;23184;51.902;12.836;2022-12-13T09:37:54;-4.70;99.90
37300;DHT22;23184;51.902;12.836;2022-12-13T09:40:25;-4.60;99.90
37300;DHT22;23184;51.902;12.836;2022-12-13T09:42:57;-4.60;99.90
37300;DHT22;23184;51.902;12.836;2022-12-13T09:45:23;-4.60;99.90
37300;DHT22;23184;51.902;12.836;2022-12-13T09:47:50;-4.50;99.90
37300;DHT22;23184;51.902;12.836;2022-12-13T09:50:31;-4.60;99.90
37300;DHT22;23184;51.902;12.836;2022-12-13T09:52:58;-4.50;99.90
37300;DHT22;23184;51.902;12.836;2022-12-13T09:57:50;-4.40;99.90
37300;DHT22;23184;51.902;12.836;2022-12-13T10:00:19;-4.30;99.90
37300;DHT22;23184;51.902;12.836;2022-12-13T10:02:56;-4.30;99.90
37300;DHT22;23184;51.902;12.836;2022-12-13T10:05:33;-4.20;99.90
37300;DHT22;23184;51.902;12.836;2022-12-13T10:08:23;-4.20;99.90
37300;DHT22;23184;51.902;12.836;2022-12-13T10:10:50;-4.20;99.90
37300;DHT22;23184;51.902;12.836;2022-12-13T10:13:20;-4.10;99.90
37300;DHT22;23184;51.902;12.836;2022-12-13T10:15:56;-3.90;99.90
37300;DHT22;23184;51.902;12.836;2022-12-13T10:18:39;-3.90;99.90
37300;DHT22;23184;51.902;12.836;2022-12-13T10:21:26;-3.80;99.90
37300;DHT22;23184;51.902;12.836;2022-12-13T10:23:52;-3.70;99.90
37300;DHT22;23184;51.902;12.836;2022-12-13T10:26:18;-3.70;99.90
37300;DHT22;23184;51.902;12.836;2022-12-13T10:28:43;-3.70;99.90
37300;DHT22;23184;51.902;12.836;2022-12-13T10:31:16;-3.60;99.90
37300;DHT22;23184;51.902;12.836;2022-12-13T10:33:53;-3.60;99.90
37300;DHT22;23184;51.902;12.836;2022-12-13T10:36:38;-3.60;99.90
37300;DHT22;23184;51.902;12.836;2022-12-13T10:39:07;-3.60;99.90
37300;DHT22;23184;51.902;12.836;2022-12-13T10:41:38;-3.40;99.90
37300;DHT22;23184;51.902;12.836;2022-12-13T10:46:39;-3.50;99.90
37300;DHT22;23184;51.902;12.836;2022-12-13T10:49:23;-3.30;99.90
37300;DHT22;23184;51.902;12.836;2022-12-13T10:51:51;-3.20;99.90
37300;DHT22;23184;51.902;12.836;2022-12-13T10:54:29;-3.00;99.90
37300;DHT22;23184;51.902;12.836;2022-12-13T10:56:56;-3.10;99.90
37300;DHT22;23184;51.902;12.836;2022-12-13T11:01:50;-2.90;99.90
37300;DHT22;23184;51.902;12.836;2022-12-13T11:04:32;-2.90;99.90
37300;DHT22;23184;51.902;12.836;2022-12-13T11:07:00;-2.80;99.90
37300;DHT22;23184;51.902;12.836;2022-12-13T11:09:29;-2.70;99.90
37300;DHT22;23184;51.902;12.836;2022-12-13T11:11:58;-2.60;99.90
37300;DHT22;23184;51.902;12.836;2022-12-13T11:14:27;-2.60;99.90
37300;DHT22;23184;51.902;12.836;2022-12-13T11:16:56;-2.50;99.90
37300;DHT22;23184;51.902;12.836;2022-12-13T11:19:43;-2.50;99.90
37300;DHT22;23184;51.902;12.836;2022-12-13T11:22:19;-2.50;99.90
37300;DHT22;23184;51.902;12.836;2022-12-13T11:24:50;-2.40;99.90
37300;DHT22;23184;51.902;12.836;2022-12-13T11:30:20;-2.40;99.90
37300;DHT22;23184;51.902;12.836;2022-12-13T11:33:18;-2.40;99.90
37300;DHT22;23184;51.902;12.836;2022-12-13T11:39:15;-2.20;99.90
37300;DHT22;23184;51.902;12.836;2022-12-13T11:41:54;-2.10;99.90
37300;DHT22;23184;51.902;12.836;2022-12-13T11:46:58;-2.10;99.90
37300;DHT22;23184;51.902;12.836;2022-12-13T11:49:36;-2.10;99.90
37300;DHT22;23184;51.902;12.836;2022-12-13T11:52:26;-2.10;99.90
37300;DHT22;23184;51.902;12.836;2022-12-13T11:54:59;-2.00;99.90
37300;DHT22;23184;51.902;12.836;2022-12-13T11:57:41;-2.00;99.90
37300;DHT22;23184;51.902;12.836;2022-12-13T12:00:34;-1.90;99.90
37300;DHT22;23184;51.902;12.836;2022-12-13T12:03:26;-2.00;99.90
37300;DHT22;23184;51.902;12.836;2022-12-13T12:05:56;-1.90;99.90
37300;DHT22;23184;51.902;12.836;2022-12-13T12:11:11;-1.90;99.90
37300;DHT22;23184;51.902;12.836;2022-12-13T12:14:04;-1.90;99.90
37300;DHT22;23184;51.902;12.836;2022-12-13T12:19:02;-1.80;99.90
37300;DHT22;23184;51.902;12.836;2022-12-13T12:27:11;-1.70;99.90
37300;DHT22;23184;51.902;12.836;2022-12-13T12:43:38;-1.70;99.90
37300;DHT22;23184;51.902;12.836;2022-12-13T12:52:16;-1.70;99.90
37300;DHT22;23184;51.902;12.836;2022-12-13T12:54:53;-1.70;99.90
37300;DHT22;23184;51.902;12.836;2022-12-13T12:57:52;-1.70;99.90
37300;DHT22;23184;51.902;12.836;2022-12-13T13:00:21;-1.60;99.90
37300;DHT22;23184;51.902;12.836;2022-12-13T13:03:15;-1.50;99.90
37300;DHT22;23184;51.902;12.836;2022-12-13T13:10:57;-1.40;99.90
37300;DHT22;23184;51.902;12.836;2022-12-13T13:14:20;-1.40;99.90
37300;DHT22;23184;51.902;12.836;2022-12-13T13:16:50;-1.40;99.90
37300;DHT22;23184;51.902;12.836;2022-12-13T13:21:48;-1.40;99.90
37300;DHT22;23184;51.902;12.836;2022-12-13T13:24:21;-1.40;99.90
37300;DHT22;23184;51.902;12.836;2022-12-13T13:26:49;-1.40;99.90
37300;DHT22;23184;51.902;12.836;2022-12-13T13:42:19;-1.70;99.90
37300;DHT22;23184;51.902;12.836;2022-12-13T13:56:22;-1.60;99.90
37300;DHT22;23184;51.902;12.836;2022-12-13T14:20:46;-1.80;99.90
37300;DHT22;23184;51.902;12.836;2022-12-13T14:28:52;-1.90;99.90
37300;DHT22;23184;51.902;12.836;2022-12-13T14:31:35;-1.90;99.90
37300;DHT22;23184;51.902;12.836;2022-12-13T14:34:03;-2.00;99.90
37300;DHT22;23184;51.902;12.836;2022-12-13T14:36:34;-2.10;99.90
37300;DHT22;23184;51.902;12.836;2022-12-13T14:39:15;-2.20;99.90
37300;DHT22;23184;51.902;12.836;2022-12-13T14:41:49;-2.20;99.90
37300;DHT22;23184;51.902;12.836;2022-12-13T14:44:23;-2.40;99.90
37300;DHT22;23184;51.902;12.836;2022-12-13T14:46:54;-2.40;99.90
37300;DHT22;23184;51.902;12.836;2022-12-13T14:49:21;-2.60;99.90
37300;DHT22;23184;51.902;12.836;2022-12-13T14:51:52;-2.70;99.90
37300;DHT22;23184;51.902;12.836;2022-12-13T14:54:25;-2.80;99.90
37300;DHT22;23184;51.902;12.836;2022-12-13T14:57:00;-2.80;99.90
37300;DHT22;23184;51.902;12.836;2022-12-13T14:59:27;-2.90;99.90
37300;DHT22;23184;51.902;12.836;2022-12-13T15:01:59;-3.00;99.90
37300;DHT22;23184;51.902;12.836;2022-12-13T15:04:31;-3.10;99.90
37300;DHT22;23184;51.902;12.836;2022-12-13T15:07:12;-3.20;99.90
37300;DHT22;23184;51.902;12.836;2022-12-13T15:09:41;-3.30;99.90
37300;DHT22;23184;51.902;12.836;2022-12-13T15:12:13;-3.40;99.90
37300;DHT22;23184;51.902;12.836;2022-12-13T15:14:45;-3.40;99.90
37300;DHT22;23184;51.902;12.836;2022-12-13T15:17:26;-3.50;99.90
37300;DHT22;23184;51.902;12.836;2022-12-13T15:19:52;-3.60;99.90
37300;DHT22;23184;51.902;12.836;2022-12-13T15:22:17;-3.60;99.90
37300;DHT22;23184;51.902;12.836;2022-12-13T15:24:44;-3.70;99.90
37300;DHT22;23184;51.902;12.836;2022-12-13T15:27:17;-3.70;99.90
37300;DHT22;23184;51.902;12.836;2022-12-13T15:29:44;-3.70;99.90
37300;DHT22;23184;51.902;12.836;2022-12-13T15:32:14;-3.80;99.90
37300;DHT22;23184;51.902;12.836;2022-12-13T15:34:41;-3.80;99.90
37300;DHT22;23184;51.902;12.836;2022-12-13T15:39:39;-3.90;99.90
37300;DHT22;23184;51.902;12.836;2022-12-13T15:42:22;-4.00;99.90
37300;DHT22;23184;51.902;12.836;2022-12-13T15:44:51;-4.00;99.90
37300;DHT22;23184;51.902;12.836;2022-12-13T15:47:19;-4.00;99.90
37300;DHT22;23184;51.902;12.836;2022-12-13T15:49:50;-4.00;99.90
37300;DHT22;23184;51.902;12.836;2022-12-13T15:55:24;-4.20;99.90
37300;DHT22;23184;51.902;12.836;2022-12-13T15:57:53;-4.30;99.90
37300;DHT22;23184;51.902;12.836;2022-12-13T16:00:22;-4.30;99.90
37300;DHT22;23184;51.902;12.836;2022-12-13T16:02:55;-4.30;99.90
37300;DHT22;23184;51.902;12.836;2022-12-13T16:05:46;-4.40;99.90
37300;DHT22;23184;51.902;12.836;2022-12-13T16:08:26;-4.40;99.90
37300;DHT22;23184;51.902;12.836;2022-12-13T16:10:53;-4.50;99.90
37300;DHT22;23184;51.902;12.836;2022-12-13T16:13:28;-4.50;99.90
37300;DHT22;23184;51.902;12.836;2022-12-13T16:15:58;-4.50;99.90
37300;DHT22;23184;51.902;12.836;2022-12-13T16:18:29;-4.60;99.90
37300;DHT22;23184;51.902;12.836;2022-12-13T16:20:59;-4.60;99.90
37300;DHT22;23184;51.902;12.836;2022-12-13T16:23:24;-4.70;99.90
37300;DHT22;23184;51.902;12.836;2022-12-13T16:25:50;-4.70;99.90
37300;DHT22;23184;51.902;12.836;2022-12-13T16:28:16;-4.80;99.90
37300;DHT22;23184;51.902;12.836;2022-12-13T16:33:26;-4.80;99.90
37300;DHT22;23184;51.902;12.836;2022-12-13T16:35:53;-4.90;99.90
37300;DHT22;23184;51.902;12.836;2022-12-13T16:38:20;-4.90;99.90
37300;DHT22;23184;51.902;12.836;2022-12-13T16:40:47;-4.90;99.90
37300;DHT22;23184;51.902;12.836;2022-12-13T16:43:16;-4.90;99.90
37300;DHT22;23184;51.902;12.836;2022-12-13T16:45:44;-4.90;99.90
37300;DHT22;23184;51.902;12.836;2022-12-13T16:48:12;-4.90;99.90
37300;DHT22;23184;51.902;12.836;2022-12-13T16:50:43;-5.00;99.90
37300;DHT22;23184;51.902;12.836;2022-12-13T16:53:09;-5.00;99.90
37300;DHT22;23184;51.902;12.836;2022-12-13T16:55:35;-5.00;99.90
37300;DHT22;23184;51.902;12.836;2022-12-13T16:58:02;-5.00;99.90
37300;DHT22;23184;51.902;12.836;2022-12-13T17:00:29;-5.00;99.90
37300;DHT22;23184;51.902;12.836;2022-12-13T17:02:56;-5.10;99.90
37300;DHT22;23184;51.902;12.836;2022-12-13T17:05:23;-5.10;99.90
37300;DHT22;23184;51.902;12.836;2022-12-13T17:07:49;-5.10;99.90
37300;DHT22;23184;51.902;12.836;2022-12-13T17:10:15;-5.10;99.90
37300;DHT22;23184;51.902;12.836;2022-12-13T17:12:41;-5.10;99.90
37300;DHT22;23184;51.902;12.836;2022-12-13T17:15:08;-5.10;99.90
37300;DHT22;23184;51.902;12.836;2022-12-13T17:17:38;-5.20;99.90
37300;DHT22;23184;51.902;12.836;2022-12-13T17:20:06;-5.20;99.90
37300;DHT22;23184;51.902;12.836;2022-12-13T17:22:40;-5.30;99.90
37300;DHT22;23184;51.902;12.836;2022-12-13T17:25:06;-5.30;99.90
37300;DHT22;23184;51.902;12.836;2022-12-13T17:27:35;-5.30;99.90
37300;DHT22;23184;51.902;12.836;2022-12-13T17:30:03;-5.40;99.90
37300;DHT22;23184;51.902;12.836;2022-12-13T17:32:29;-5.40;99.90
37300;DHT22;23184;51.902;12.836;2022-12-13T17:34:55;-5.40;99.90
37300;DHT22;23184;51.902;12.836;2022-12-13T17:37:22;-5.40;99.90
37300;DHT22;23184;51.902;12.836;2022-12-13T17:39:48;-5.40;99.90
37300;DHT22;23184;51.902;12.836;2022-12-13T17:42:14;-5.40;99.90
37300;DHT22;23184;51.902;12.836;2022-12-13T17:44:40;-5.40;99.90
37300;DHT22;23184;51.902;12.836;2022-12-13T17:47:11;-5.40;99.90
37300;DHT22;23184;51.902;12.836;2022-12-13T17:49:38;-5.40;99.90
37300;DHT22;23184;51.902;12.836;2022-12-13T17:52:04;-5.40;99.90
37300;DHT22;23184;51.902;12.836;2022-12-13T17:54:30;-5.40;99.90